sensor_id;sensor_type;location;lat;lon;timestamp;P1;durP1;ratioP1;P2;durP2;ratioP2
72369;SDS011;60343;-32.030;115.880;2023-04-03T00:02:27;3.03;;;0.80;;
72369;SDS011;60343;-32.030;115.880;2023-04-03T00:05:02;3.53;;;0.93;;
72369;SDS011;60343;-32.030;115.880;2023-04-03T00:07:43;3.65;;;0.88;;
72369;SDS011;60343;-32.030;115.880;2023-04-03T00:10:18;2.20;;;0.65;;
72369;SDS011;60343;-32.030;115.880;2023-04-03T00:12:52;2.38;;;0.95;;
72369;SDS011;60343;-32.030;115.880;2023-04-03T00:15:27;3.97;;;0.90;;
72369;SDS011;60343;-32.030;115.880;2023-04-03T00:18:02;2.03;;;0.90;;
72369;SDS011;60343;-32.030;115.880;2023-04-03T00:20:36;4.07;;;1.10;;
72369;SDS011;60343;-32.030;115.880;2023-04-03T00:23:16;4.18;;;1.30;;
72369;SDS011;60343;-32.030;115.880;2023-04-03T00:25:51;4.68;;;1.00;;
72369;SDS011;60343;-32.030;115.880;2023-04-03T00:28:25;3.28;;;0.80;;
72369;SDS011;60343;-32.030;115.880;2023-04-03T00:31:00;3.00;;;0.77;;
72369;SDS011;60343;-32.030;115.880;2023-04-03T00:33:34;2.45;;;0.70;;
72369;SDS011;60343;-32.030;115.880;2023-04-03T00:36:09;1.67;;;0.60;;
72369;SDS011;60343;-32.030;115.880;2023-04-03T00:38:50;2.13;;;0.60;;
72369;SDS011;60343;-32.030;115.880;2023-04-03T00:41:25;5.10;;;0.90;;
72369;SDS011;60343;-32.030;115.880;2023-04-03T00:43:59;3.45;;;0.70;;
72369;SDS011;60343;-32.030;115.880;2023-04-03T00:46:49;2.95;;;0.65;;
72369;SDS011;60343;-32.030;115.880;2023-04-03T00:49:24;3.35;;;0.80;;
72369;SDS011;60343;-32.030;115.880;2023-04-03T00:51:59;2.70;;;0.80;;
72369;SDS011;60343;-32.030;115.880;2023-04-03T00:54:39;3.67;;;0.73;;
72369;SDS011;60343;-32.030;115.880;2023-04-03T00:57:16;2.25;;;0.60;;
72369;SDS011;60343;-32.030;115.880;2023-04-03T00:59:52;4.10;;;0.60;;
72369;SDS011;60343;-32.030;115.880;2023-04-03T01:02:29;4.05;;;0.70;;
72369;SDS011;60343;-32.030;115.880;2023-04-03T01:05:06;3.15;;;0.80;;
72369;SDS011;60343;-32.030;115.880;2023-04-03T01:07:41;4.47;;;0.73;;
72369;SDS011;60343;-32.030;115.880;2023-04-03T01:10:22;2.15;;;0.65;;
72369;SDS011;60343;-32.030;115.880;2023-04-03T01:12:57;5.38;;;1.05;;
72369;SDS011;60343;-32.030;115.880;2023-04-03T01:15:32;2.38;;;0.90;;
72369;SDS011;60343;-32.030;115.880;2023-04-03T01:18:09;4.80;;;0.93;;
72369;SDS011;60343;-32.030;115.880;2023-04-03T01:21:03;3.40;;;0.90;;
72369;SDS011;60343;-32.030;115.880;2023-04-03T01:24:09;2.72;;;0.70;;
72369;SDS011;60343;-32.030;115.880;2023-04-03T01:26:55;3.13;;;0.80;;
72369;SDS011;60343;-32.030;115.880;2023-04-03T01:29:30;2.72;;;0.80;;
72369;SDS011;60343;-32.030;115.880;2023-04-03T01:32:10;2.05;;;0.65;;
72369;SDS011;60343;-32.030;115.880;2023-04-03T01:34:45;3.97;;;0.95;;
72369;SDS011;60343;-32.030;115.880;2023-04-03T01:37:19;2.45;;;0.70;;
72369;SDS011;60343;-32.030;115.880;2023-04-03T01:39:54;4.65;;;0.75;;
72369;SDS011;60343;-32.030;115.880;2023-04-03T01:42:28;4.38;;;0.80;;
72369;SDS011;60343;-32.030;115.880;2023-04-03T01:45:03;3.88;;;0.80;;
72369;SDS011;60343;-32.030;115.880;2023-04-03T01:47:44;3.08;;;0.75;;
72369;SDS011;60343;-32.030;115.880;2023-04-03T01:50:18;4.82;;;0.90;;
72369;SDS011;60343;-32.030;115.880;2023-04-03T01:52:53;3.15;;;0.75;;
72369;SDS011;60343;-32.030;115.880;2023-04-03T01:55:27;2.60;;;0.70;;
72369;SDS011;60343;-32.030;115.880;2023-04-03T01:58:02;3.42;;;0.98;;
72369;SDS011;60343;-32.030;115.880;2023-04-03T02:00:36;3.33;;;0.70;;
72369;SDS011;60343;-32.030;115.880;2023-04-03T02:03:16;3.40;;;0.80;;
72369;SDS011;60343;-32.030;115.880;2023-04-03T02:05:51;1.60;;;0.55;;
72369;SDS011;60343;-32.030;115.880;2023-04-03T02:08:26;2.75;;;0.70;;
72369;SDS011;60343;-32.030;115.880;2023-04-03T02:11:00;4.60;;;0.80;;
72369;SDS011;60343;-32.030;115.880;2023-04-03T02:13:35;5.10;;;0.93;;
72369;SDS011;60343;-32.030;115.880;2023-04-03T02:16:09;3.22;;;0.70;;
72369;SDS011;60343;-32.030;115.880;2023-04-03T02:18:50;2.58;;;0.75;;
72369;SDS011;60343;-32.030;115.880;2023-04-03T02:21:24;4.88;;;1.02;;
72369;SDS011;60343;-32.030;115.880;2023-04-03T02:23:59;2.85;;;0.75;;
72369;SDS011;60343;-32.030;115.880;2023-04-03T02:26:33;2.03;;;0.60;;
72369;SDS011;60343;-32.030;115.880;2023-04-03T02:29:08;2.80;;;0.77;;
72369;SDS011;60343;-32.030;115.880;2023-04-03T02:31:42;6.40;;;1.00;;
72369;SDS011;60343;-32.030;115.880;2023-04-03T02:34:23;2.35;;;0.70;;
72369;SDS011;60343;-32.030;115.880;2023-04-03T02:36:58;2.75;;;0.80;;
72369;SDS011;60343;-32.030;115.880;2023-04-03T02:39:32;3.15;;;0.73;;
72369;SDS011;60343;-32.030;115.880;2023-04-03T02:42:07;4.82;;;1.00;;
72369;SDS011;60343;-32.030;115.880;2023-04-03T02:44:41;2.97;;;0.70;;
72369;SDS011;60343;-32.030;115.880;2023-04-03T02:47:16;2.03;;;0.60;;
72369;SDS011;60343;-32.030;115.880;2023-04-03T02:49:56;3.85;;;0.60;;
72369;SDS011;60343;-32.030;115.880;2023-04-03T02:52:31;0.63;;;0.38;;
72369;SDS011;60343;-32.030;115.880;2023-04-03T02:55:05;2.97;;;0.60;;
72369;SDS011;60343;-32.030;115.880;2023-04-03T02:57:40;2.20;;;0.60;;
72369;SDS011;60343;-32.030;115.880;2023-04-03T03:00:15;1.65;;;0.60;;
72369;SDS011;60343;-32.030;115.880;2023-04-03T03:02:49;3.45;;;0.63;;
72369;SDS011;60343;-32.030;115.880;2023-04-03T03:05:30;1.90;;;0.50;;
72369;SDS011;60343;-32.030;115.880;2023-04-03T03:08:04;3.25;;;0.63;;
72369;SDS011;60343;-32.030;115.880;2023-04-03T03:10:39;1.77;;;0.57;;
72369;SDS011;60343;-32.030;115.880;2023-04-03T03:15:50;2.42;;;0.50;;
72369;SDS011;60343;-32.030;115.880;2023-04-03T03:18:25;3.63;;;0.70;;
72369;SDS011;60343;-32.030;115.880;2023-04-03T03:21:05;2.97;;;0.57;;
72369;SDS011;60343;-32.030;115.880;2023-04-03T03:23:40;2.67;;;0.55;;
72369;SDS011;60343;-32.030;115.880;2023-04-03T03:26:14;3.00;;;0.60;;
72369;SDS011;60343;-32.030;115.880;2023-04-03T03:28:49;1.73;;;0.60;;
72369;SDS011;60343;-32.030;115.880;2023-04-03T03:31:23;2.22;;;0.60;;
72369;SDS011;60343;-32.030;115.880;2023-04-03T03:33:58;2.42;;;0.52;;
72369;SDS011;60343;-32.030;115.880;2023-04-03T03:36:38;4.88;;;0.70;;
72369;SDS011;60343;-32.030;115.880;2023-04-03T03:39:13;2.53;;;0.60;;
72369;SDS011;60343;-32.030;115.880;2023-04-03T03:41:47;3.33;;;0.70;;
72369;SDS011;60343;-32.030;115.880;2023-04-03T03:44:22;2.63;;;0.57;;
72369;SDS011;60343;-32.030;115.880;2023-04-03T03:46:56;4.28;;;0.70;;
72369;SDS011;60343;-32.030;115.880;2023-04-03T03:49:32;1.92;;;0.63;;
72369;SDS011;60343;-32.030;115.880;2023-04-03T03:52:12;1.92;;;0.55;;
72369;SDS011;60343;-32.030;115.880;2023-04-03T03:54:47;2.60;;;0.60;;
72369;SDS011;60343;-32.030;115.880;2023-04-03T03:57:21;2.42;;;0.52;;
72369;SDS011;60343;-32.030;115.880;2023-04-03T03:59:56;2.65;;;0.75;;
72369;SDS011;60343;-32.030;115.880;2023-04-03T04:02:31;3.15;;;0.77;;
72369;SDS011;60343;-32.030;115.880;2023-04-03T04:05:05;3.55;;;0.68;;
72369;SDS011;60343;-32.030;115.880;2023-04-03T04:07:46;3.63;;;0.60;;
72369;SDS011;60343;-32.030;115.880;2023-04-03T04:10:20;1.90;;;0.52;;
72369;SDS011;60343;-32.030;115.880;2023-04-03T04:12:55;2.63;;;0.60;;
72369;SDS011;60343;-32.030;115.880;2023-04-03T04:15:29;4.82;;;0.60;;
72369;SDS011;60343;-32.030;115.880;2023-04-03T04:18:04;3.60;;;0.70;;
72369;SDS011;60343;-32.030;115.880;2023-04-03T04:20:38;2.35;;;0.75;;
72369;SDS011;60343;-32.030;115.880;2023-04-03T04:23:18;2.70;;;0.57;;
72369;SDS011;60343;-32.030;115.880;2023-04-03T04:25:53;1.73;;;0.50;;
72369;SDS011;60343;-32.030;115.880;2023-04-03T04:28:28;1.42;;;0.50;;
72369;SDS011;60343;-32.030;115.880;2023-04-03T04:31:03;2.33;;;0.40;;
72369;SDS011;60343;-32.030;115.880;2023-04-03T04:33:38;2.95;;;0.68;;
72369;SDS011;60343;-32.030;115.880;2023-04-03T04:36:12;1.70;;;0.70;;
72369;SDS011;60343;-32.030;115.880;2023-04-03T04:38:52;2.15;;;0.50;;
72369;SDS011;60343;-32.030;115.880;2023-04-03T04:41:27;4.03;;;0.60;;
72369;SDS011;60343;-32.030;115.880;2023-04-03T04:44:02;1.77;;;0.57;;
72369;SDS011;60343;-32.030;115.880;2023-04-03T04:46:36;2.65;;;0.73;;
72369;SDS011;60343;-32.030;115.880;2023-04-03T04:49:10;2.35;;;0.80;;
72369;SDS011;60343;-32.030;115.880;2023-04-03T04:51:45;3.05;;;0.60;;
72369;SDS011;60343;-32.030;115.880;2023-04-03T04:54:25;2.72;;;0.60;;
72369;SDS011;60343;-32.030;115.880;2023-04-03T04:56:59;3.38;;;0.60;;
72369;SDS011;60343;-32.030;115.880;2023-04-03T04:59:34;3.28;;;0.80;;
72369;SDS011;60343;-32.030;115.880;2023-04-03T05:02:08;4.07;;;0.70;;
72369;SDS011;60343;-32.030;115.880;2023-04-03T05:04:43;2.13;;;0.70;;
72369;SDS011;60343;-32.030;115.880;2023-04-03T05:07:18;3.75;;;0.70;;
72369;SDS011;60343;-32.030;115.880;2023-04-03T05:09:58;3.47;;;0.73;;
72369;SDS011;60343;-32.030;115.880;2023-04-03T05:12:33;4.03;;;0.80;;
72369;SDS011;60343;-32.030;115.880;2023-04-03T05:15:08;2.60;;;0.60;;
72369;SDS011;60343;-32.030;115.880;2023-04-03T05:17:43;3.53;;;0.70;;
72369;SDS011;60343;-32.030;115.880;2023-04-03T05:20:17;3.58;;;0.85;;
72369;SDS011;60343;-32.030;115.880;2023-04-03T05:22:52;1.83;;;0.50;;
72369;SDS011;60343;-32.030;115.880;2023-04-03T05:25:32;2.33;;;0.60;;
72369;SDS011;60343;-32.030;115.880;2023-04-03T05:28:07;3.17;;;0.75;;
72369;SDS011;60343;-32.030;115.880;2023-04-03T05:30:41;3.92;;;0.77;;
72369;SDS011;60343;-32.030;115.880;2023-04-03T05:33:16;6.13;;;1.15;;
72369;SDS011;60343;-32.030;115.880;2023-04-03T05:35:50;2.72;;;0.60;;
72369;SDS011;60343;-32.030;115.880;2023-04-03T05:38:25;2.47;;;0.80;;
72369;SDS011;60343;-32.030;115.880;2023-04-03T05:41:05;7.40;;;0.80;;
72369;SDS011;60343;-32.030;115.880;2023-04-03T05:43:39;2.80;;;0.80;;
72369;SDS011;60343;-32.030;115.880;2023-04-03T05:46:15;3.25;;;0.63;;
72369;SDS011;60343;-32.030;115.880;2023-04-03T05:48:50;2.63;;;0.70;;
72369;SDS011;60343;-32.030;115.880;2023-04-03T05:51:25;2.05;;;0.60;;
72369;SDS011;60343;-32.030;115.880;2023-04-03T05:54:06;2.70;;;0.60;;
72369;SDS011;60343;-32.030;115.880;2023-04-03T05:56:49;2.10;;;0.40;;
72369;SDS011;60343;-32.030;115.880;2023-04-03T05:59:24;3.38;;;0.50;;
72369;SDS011;60343;-32.030;115.880;2023-04-03T06:01:59;1.98;;;0.45;;
72369;SDS011;60343;-32.030;115.880;2023-04-03T06:04:33;2.45;;;0.50;;
72369;SDS011;60343;-32.030;115.880;2023-04-03T06:07:09;2.28;;;0.50;;
72369;SDS011;60343;-32.030;115.880;2023-04-03T06:09:47;3.20;;;0.77;;
72369;SDS011;60343;-32.030;115.880;2023-04-03T06:12:27;2.03;;;0.50;;
72369;SDS011;60343;-32.030;115.880;2023-04-03T06:15:02;3.90;;;0.50;;
72369;SDS011;60343;-32.030;115.880;2023-04-03T06:17:39;1.58;;;0.50;;
72369;SDS011;60343;-32.030;115.880;2023-04-03T06:20:14;3.58;;;0.70;;
72369;SDS011;60343;-32.030;115.880;2023-04-03T06:22:49;2.78;;;0.75;;
72369;SDS011;60343;-32.030;115.880;2023-04-03T06:25:23;1.98;;;0.60;;
72369;SDS011;60343;-32.030;115.880;2023-04-03T06:28:04;3.85;;;0.80;;
72369;SDS011;60343;-32.030;115.880;2023-04-03T06:30:39;2.53;;;0.60;;
72369;SDS011;60343;-32.030;115.880;2023-04-03T06:33:14;2.50;;;0.63;;
72369;SDS011;60343;-32.030;115.880;2023-04-03T06:35:49;1.77;;;0.63;;
72369;SDS011;60343;-32.030;115.880;2023-04-03T06:38:28;1.92;;;0.57;;
72369;SDS011;60343;-32.030;115.880;2023-04-03T06:41:02;2.25;;;0.63;;
72369;SDS011;60343;-32.030;115.880;2023-04-03T06:43:43;1.52;;;0.60;;
72369;SDS011;60343;-32.030;115.880;2023-04-03T06:46:18;1.85;;;0.57;;
72369;SDS011;60343;-32.030;115.880;2023-04-03T06:48:54;3.20;;;0.70;;
72369;SDS011;60343;-32.030;115.880;2023-04-03T06:51:29;4.30;;;0.73;;
72369;SDS011;60343;-32.030;115.880;2023-04-03T06:54:04;2.28;;;0.70;;
72369;SDS011;60343;-32.030;115.880;2023-04-03T06:56:39;2.33;;;0.60;;
72369;SDS011;60343;-32.030;115.880;2023-04-03T06:59:19;2.90;;;0.80;;
72369;SDS011;60343;-32.030;115.880;2023-04-03T07:01:54;3.47;;;0.60;;
72369;SDS011;60343;-32.030;115.880;2023-04-03T07:04:28;2.38;;;0.60;;
72369;SDS011;60343;-32.030;115.880;2023-04-03T07:07:03;2.25;;;0.60;;
72369;SDS011;60343;-32.030;115.880;2023-04-03T07:09:37;1.77;;;0.50;;
72369;SDS011;60343;-32.030;115.880;2023-04-03T07:12:14;2.97;;;0.60;;
72369;SDS011;60343;-32.030;115.880;2023-04-03T07:14:54;3.30;;;0.60;;
72369;SDS011;60343;-32.030;115.880;2023-04-03T07:17:29;2.50;;;0.60;;
72369;SDS011;60343;-32.030;115.880;2023-04-03T07:20:04;2.67;;;0.57;;
72369;SDS011;60343;-32.030;115.880;2023-04-03T07:22:39;2.90;;;0.60;;
72369;SDS011;60343;-32.030;115.880;2023-04-03T07:25:14;2.65;;;0.70;;
72369;SDS011;60343;-32.030;115.880;2023-04-03T07:27:48;2.65;;;0.85;;
72369;SDS011;60343;-32.030;115.880;2023-04-03T07:30:28;3.05;;;0.70;;
72369;SDS011;60343;-32.030;115.880;2023-04-03T07:33:03;6.38;;;0.80;;
72369;SDS011;60343;-32.030;115.880;2023-04-03T07:35:38;3.60;;;0.70;;
72369;SDS011;60343;-32.030;115.880;2023-04-03T07:38:12;4.22;;;1.10;;
72369;SDS011;60343;-32.030;115.880;2023-04-03T07:40:47;4.18;;;0.82;;
72369;SDS011;60343;-32.030;115.880;2023-04-03T07:43:23;3.53;;;0.85;;
72369;SDS011;60343;-32.030;115.880;2023-04-03T07:46:04;5.65;;;0.80;;
72369;SDS011;60343;-32.030;115.880;2023-04-03T07:48:39;2.90;;;0.75;;
72369;SDS011;60343;-32.030;115.880;2023-04-03T07:51:14;2.55;;;0.60;;
72369;SDS011;60343;-32.030;115.880;2023-04-03T07:53:50;3.72;;;0.93;;
72369;SDS011;60343;-32.030;115.880;2023-04-03T07:56:24;2.15;;;0.68;;
72369;SDS011;60343;-32.030;115.880;2023-04-03T07:58:59;2.05;;;0.90;;
72369;SDS011;60343;-32.030;115.880;2023-04-03T08:01:55;2.58;;;0.90;;
72369;SDS011;60343;-32.030;115.880;2023-04-03T08:04:34;2.80;;;0.93;;
72369;SDS011;60343;-32.030;115.880;2023-04-03T08:07:09;3.42;;;1.10;;
72369;SDS011;60343;-32.030;115.880;2023-04-03T08:09:44;5.45;;;0.93;;
72369;SDS011;60343;-32.030;115.880;2023-04-03T08:12:20;3.80;;;0.82;;
72369;SDS011;60343;-32.030;115.880;2023-04-03T08:14:56;3.53;;;1.00;;
72369;SDS011;60343;-32.030;115.880;2023-04-03T08:17:39;3.80;;;0.98;;
72369;SDS011;60343;-32.030;115.880;2023-04-03T08:20:14;2.92;;;1.00;;
72369;SDS011;60343;-32.030;115.880;2023-04-03T08:22:49;3.03;;;1.00;;
72369;SDS011;60343;-32.030;115.880;2023-04-03T08:25:24;3.42;;;1.10;;
72369;SDS011;60343;-32.030;115.880;2023-04-03T08:27:58;2.67;;;1.08;;
72369;SDS011;60343;-32.030;115.880;2023-04-03T08:30:33;2.72;;;0.80;;
72369;SDS011;60343;-32.030;115.880;2023-04-03T08:33:13;2.58;;;1.00;;
72369;SDS011;60343;-32.030;115.880;2023-04-03T08:35:48;5.13;;;1.20;;
72369;SDS011;60343;-32.030;115.880;2023-04-03T08:38:23;3.28;;;0.90;;
72369;SDS011;60343;-32.030;115.880;2023-04-03T08:41:02;2.78;;;0.95;;
72369;SDS011;60343;-32.030;115.880;2023-04-03T08:43:49;6.47;;;1.10;;
72369;SDS011;60343;-32.030;115.880;2023-04-03T08:46:33;2.45;;;0.90;;
72369;SDS011;60343;-32.030;115.880;2023-04-03T08:49:28;4.15;;;1.05;;
72369;SDS011;60343;-32.030;115.880;2023-04-03T08:52:07;4.20;;;1.00;;
72369;SDS011;60343;-32.030;115.880;2023-04-03T08:54:48;4.38;;;0.70;;
72369;SDS011;60343;-32.030;115.880;2023-04-03T08:57:27;3.50;;;0.80;;
72369;SDS011;60343;-32.030;115.880;2023-04-03T09:00:07;4.90;;;1.00;;
72369;SDS011;60343;-32.030;115.880;2023-04-03T09:02:51;3.40;;;0.90;;
72369;SDS011;60343;-32.030;115.880;2023-04-03T09:05:41;3.30;;;0.93;;
72369;SDS011;60343;-32.030;115.880;2023-04-03T09:08:23;4.47;;;1.00;;
72369;SDS011;60343;-32.030;115.880;2023-04-03T09:11:03;5.97;;;0.93;;
72369;SDS011;60343;-32.030;115.880;2023-04-03T09:13:46;5.20;;;1.10;;
72369;SDS011;60343;-32.030;115.880;2023-04-03T09:16:32;2.80;;;1.13;;
72369;SDS011;60343;-32.030;115.880;2023-04-03T09:19:18;6.93;;;1.23;;
72369;SDS011;60343;-32.030;115.880;2023-04-03T09:22:07;3.55;;;1.30;;
72369;SDS011;60343;-32.030;115.880;2023-04-03T09:24:49;4.30;;;1.27;;
72369;SDS011;60343;-32.030;115.880;2023-04-03T09:27:30;4.22;;;0.88;;
72369;SDS011;60343;-32.030;115.880;2023-04-03T09:30:04;6.75;;;1.10;;
72369;SDS011;60343;-32.030;115.880;2023-04-03T09:32:45;4.72;;;1.10;;
72369;SDS011;60343;-32.030;115.880;2023-04-03T09:35:23;6.10;;;1.45;;
72369;SDS011;60343;-32.030;115.880;2023-04-03T09:38:15;5.40;;;1.10;;
72369;SDS011;60343;-32.030;115.880;2023-04-03T09:41:02;5.93;;;1.00;;
72369;SDS011;60343;-32.030;115.880;2023-04-03T09:43:38;7.38;;;1.00;;
72369;SDS011;60343;-32.030;115.880;2023-04-03T09:46:29;6.68;;;1.08;;
72369;SDS011;60343;-32.030;115.880;2023-04-03T09:49:08;10.88;;;2.08;;
72369;SDS011;60343;-32.030;115.880;2023-04-03T09:51:45;9.55;;;1.00;;
72369;SDS011;60343;-32.030;115.880;2023-04-03T09:54:32;5.07;;;0.98;;
72369;SDS011;60343;-32.030;115.880;2023-04-03T09:57:10;6.47;;;0.85;;
72369;SDS011;60343;-32.030;115.880;2023-04-03T09:59:46;5.38;;;0.70;;
72369;SDS011;60343;-32.030;115.880;2023-04-03T10:02:32;7.90;;;1.23;;
72369;SDS011;60343;-32.030;115.880;2023-04-03T10:05:30;5.03;;;1.00;;
72369;SDS011;60343;-32.030;115.880;2023-04-03T10:11:06;7.75;;;0.90;;
72369;SDS011;60343;-32.030;115.880;2023-04-03T10:13:52;5.50;;;1.10;;
72369;SDS011;60343;-32.030;115.880;2023-04-03T10:16:33;8.85;;;1.10;;
72369;SDS011;60343;-32.030;115.880;2023-04-03T10:19:31;6.13;;;1.20;;
72369;SDS011;60343;-32.030;115.880;2023-04-03T10:22:13;4.60;;;1.17;;
72369;SDS011;60343;-32.030;115.880;2023-04-03T10:24:53;8.00;;;0.90;;
72369;SDS011;60343;-32.030;115.880;2023-04-03T10:27:44;6.68;;;1.00;;
72369;SDS011;60343;-32.030;115.880;2023-04-03T10:30:31;7.68;;;1.08;;
72369;SDS011;60343;-32.030;115.880;2023-04-03T10:33:23;9.77;;;1.15;;
72369;SDS011;60343;-32.030;115.880;2023-04-03T10:36:15;7.93;;;0.90;;
72369;SDS011;60343;-32.030;115.880;2023-04-03T10:38:59;8.55;;;1.08;;
72369;SDS011;60343;-32.030;115.880;2023-04-03T10:41:43;6.55;;;0.88;;
72369;SDS011;60343;-32.030;115.880;2023-04-03T10:44:36;10.25;;;1.00;;
72369;SDS011;60343;-32.030;115.880;2023-04-03T10:47:16;8.88;;;1.25;;
72369;SDS011;60343;-32.030;115.880;2023-04-03T10:49:56;5.43;;;0.88;;
72369;SDS011;60343;-32.030;115.880;2023-04-03T10:52:41;9.52;;;0.90;;
72369;SDS011;60343;-32.030;115.880;2023-04-03T10:55:23;7.05;;;0.90;;
72369;SDS011;60343;-32.030;115.880;2023-04-03T10:58:05;7.93;;;1.05;;
72369;SDS011;60343;-32.030;115.880;2023-04-03T11:00:55;11.48;;;1.20;;
72369;SDS011;60343;-32.030;115.880;2023-04-03T11:03:35;5.63;;;0.77;;
72369;SDS011;60343;-32.030;115.880;2023-04-03T11:06:13;4.78;;;0.70;;
72369;SDS011;60343;-32.030;115.880;2023-04-03T11:08:52;6.65;;;1.20;;
72369;SDS011;60343;-32.030;115.880;2023-04-03T11:11:33;8.40;;;1.15;;
72369;SDS011;60343;-32.030;115.880;2023-04-03T11:14:11;7.35;;;1.30;;
72369;SDS011;60343;-32.030;115.880;2023-04-03T11:16:59;9.18;;;1.17;;
72369;SDS011;60343;-32.030;115.880;2023-04-03T11:19:43;7.75;;;1.20;;
72369;SDS011;60343;-32.030;115.880;2023-04-03T11:22:22;4.38;;;0.68;;
72369;SDS011;60343;-32.030;115.880;2023-04-03T11:25:03;7.28;;;1.00;;
72369;SDS011;60343;-32.030;115.880;2023-04-03T11:27:51;5.63;;;0.80;;
72369;SDS011;60343;-32.030;115.880;2023-04-03T11:30:31;6.97;;;0.90;;
72369;SDS011;60343;-32.030;115.880;2023-04-03T11:36:18;5.78;;;0.82;;
72369;SDS011;60343;-32.030;115.880;2023-04-03T11:38:57;5.32;;;0.95;;
72369;SDS011;60343;-32.030;115.880;2023-04-03T11:41:36;6.13;;;0.90;;
72369;SDS011;60343;-32.030;115.880;2023-04-03T11:44:25;6.55;;;0.80;;
72369;SDS011;60343;-32.030;115.880;2023-04-03T11:47:05;7.13;;;1.00;;
72369;SDS011;60343;-32.030;115.880;2023-04-03T12:01:56;5.35;;;0.68;;
72369;SDS011;60343;-32.030;115.880;2023-04-03T12:04:30;8.93;;;0.90;;
72369;SDS011;60343;-32.030;115.880;2023-04-03T12:09:59;4.03;;;0.70;;
72369;SDS011;60343;-32.030;115.880;2023-04-03T12:12:38;4.45;;;0.70;;
72369;SDS011;60343;-32.030;115.880;2023-04-03T12:15:21;7.13;;;0.77;;
72369;SDS011;60343;-32.030;115.880;2023-04-03T12:21:16;7.20;;;1.10;;
72369;SDS011;60343;-32.030;115.880;2023-04-03T12:24:23;7.75;;;0.93;;
72369;SDS011;60343;-32.030;115.880;2023-04-03T12:27:07;6.65;;;0.73;;
72369;SDS011;60343;-32.030;115.880;2023-04-03T12:29:58;6.70;;;0.80;;
72369;SDS011;60343;-32.030;115.880;2023-04-03T12:35:39;7.07;;;1.00;;
72369;SDS011;60343;-32.030;115.880;2023-04-03T12:41:48;5.57;;;0.80;;
72369;SDS011;60343;-32.030;115.880;2023-04-03T12:44:39;5.32;;;1.00;;
72369;SDS011;60343;-32.030;115.880;2023-04-03T12:47:23;9.23;;;1.35;;
72369;SDS011;60343;-32.030;115.880;2023-04-03T12:50:02;9.35;;;1.02;;
72369;SDS011;60343;-32.030;115.880;2023-04-03T12:52:51;5.30;;;0.77;;
72369;SDS011;60343;-32.030;115.880;2023-04-03T12:55:37;5.15;;;0.70;;
72369;SDS011;60343;-32.030;115.880;2023-04-03T12:58:15;9.95;;;1.13;;
72369;SDS011;60343;-32.030;115.880;2023-04-03T13:01:03;6.95;;;0.90;;
72369;SDS011;60343;-32.030;115.880;2023-04-03T13:03:44;8.18;;;0.85;;
72369;SDS011;60343;-32.030;115.880;2023-04-03T13:06:21;8.43;;;0.68;;
72369;SDS011;60343;-32.030;115.880;2023-04-03T13:08:58;6.57;;;1.02;;
72369;SDS011;60343;-32.030;115.880;2023-04-03T13:11:40;3.92;;;0.60;;
72369;SDS011;60343;-32.030;115.880;2023-04-03T13:14:18;4.50;;;0.70;;
72369;SDS011;60343;-32.030;115.880;2023-04-03T13:16:55;5.88;;;0.90;;
72369;SDS011;60343;-32.030;115.880;2023-04-03T13:19:31;5.40;;;1.08;;
72369;SDS011;60343;-32.030;115.880;2023-04-03T13:22:06;5.38;;;1.13;;
72369;SDS011;60343;-32.030;115.880;2023-04-03T13:24:52;5.10;;;1.23;;
72369;SDS011;60343;-32.030;115.880;2023-04-03T13:27:34;3.88;;;0.70;;
72369;SDS011;60343;-32.030;115.880;2023-04-03T13:30:17;8.95;;;1.23;;
72369;SDS011;60343;-32.030;115.880;2023-04-03T13:32:59;5.75;;;0.73;;
72369;SDS011;60343;-32.030;115.880;2023-04-03T13:35:37;4.03;;;0.68;;
72369;SDS011;60343;-32.030;115.880;2023-04-03T13:38:22;3.75;;;0.70;;
72369;SDS011;60343;-32.030;115.880;2023-04-03T13:40:59;5.22;;;0.98;;
72369;SDS011;60343;-32.030;115.880;2023-04-03T13:43:41;7.47;;;0.70;;
72369;SDS011;60343;-32.030;115.880;2023-04-03T13:46:23;3.22;;;0.60;;
72369;SDS011;60343;-32.030;115.880;2023-04-03T13:48:58;4.35;;;0.45;;
72369;SDS011;60343;-32.030;115.880;2023-04-03T13:51:52;4.43;;;0.70;;
72369;SDS011;60343;-32.030;115.880;2023-04-03T13:54:29;5.85;;;0.70;;
72369;SDS011;60343;-32.030;115.880;2023-04-03T13:57:11;2.88;;;0.45;;
72369;SDS011;60343;-32.030;115.880;2023-04-03T13:59:54;1.65;;;0.38;;
72369;SDS011;60343;-32.030;115.880;2023-04-03T14:02:30;3.88;;;0.73;;
72369;SDS011;60343;-32.030;115.880;2023-04-03T14:05:05;3.60;;;0.70;;
72369;SDS011;60343;-32.030;115.880;2023-04-03T14:07:42;3.08;;;1.00;;
72369;SDS011;60343;-32.030;115.880;2023-04-03T14:10:17;2.15;;;0.50;;
72369;SDS011;60343;-32.030;115.880;2023-04-03T14:12:51;4.18;;;0.90;;
72369;SDS011;60343;-32.030;115.880;2023-04-03T14:15:31;3.65;;;0.55;;
72369;SDS011;60343;-32.030;115.880;2023-04-03T14:18:08;3.33;;;0.65;;
72369;SDS011;60343;-32.030;115.880;2023-04-03T14:20:44;3.55;;;0.43;;
72369;SDS011;60343;-32.030;115.880;2023-04-03T14:23:19;1.98;;;0.38;;
72369;SDS011;60343;-32.030;115.880;2023-04-03T14:25:53;3.85;;;0.60;;
72369;SDS011;60343;-32.030;115.880;2023-04-03T14:28:28;3.70;;;0.85;;
72369;SDS011;60343;-32.030;115.880;2023-04-03T14:31:11;3.60;;;0.70;;
72369;SDS011;60343;-32.030;115.880;2023-04-03T14:33:48;2.90;;;0.40;;
72369;SDS011;60343;-32.030;115.880;2023-04-03T14:36:23;1.70;;;0.40;;
72369;SDS011;60343;-32.030;115.880;2023-04-03T14:39:00;3.15;;;0.55;;
72369;SDS011;60343;-32.030;115.880;2023-04-03T14:41:36;1.67;;;0.50;;
72369;SDS011;60343;-32.030;115.880;2023-04-03T14:44:11;1.80;;;0.50;;
72369;SDS011;60343;-32.030;115.880;2023-04-03T14:46:51;2.70;;;0.50;;
72369;SDS011;60343;-32.030;115.880;2023-04-03T14:49:27;4.32;;;0.95;;
72369;SDS011;60343;-32.030;115.880;2023-04-03T14:52:02;4.32;;;0.88;;
72369;SDS011;60343;-32.030;115.880;2023-04-03T14:54:37;2.92;;;0.55;;
72369;SDS011;60343;-32.030;115.880;2023-04-03T14:57:11;5.30;;;0.90;;
72369;SDS011;60343;-32.030;115.880;2023-04-03T14:59:47;3.40;;;0.50;;
72369;SDS011;60343;-32.030;115.880;2023-04-03T15:02:31;3.47;;;0.52;;
72369;SDS011;60343;-32.030;115.880;2023-04-03T15:08:18;7.32;;;0.82;;
72369;SDS011;60343;-32.030;115.880;2023-04-03T15:10:55;3.28;;;0.98;;
72369;SDS011;60343;-32.030;115.880;2023-04-03T15:13:30;2.55;;;0.50;;
72369;SDS011;60343;-32.030;115.880;2023-04-03T15:16:05;3.38;;;0.50;;
72369;SDS011;60343;-32.030;115.880;2023-04-03T15:18:52;1.77;;;0.60;;
72369;SDS011;60343;-32.030;115.880;2023-04-03T15:21:26;2.40;;;0.60;;
72369;SDS011;60343;-32.030;115.880;2023-04-03T15:24:01;2.10;;;0.40;;
72369;SDS011;60343;-32.030;115.880;2023-04-03T15:26:36;3.58;;;0.40;;
72369;SDS011;60343;-32.030;115.880;2023-04-03T15:29:11;3.03;;;0.60;;
72369;SDS011;60343;-32.030;115.880;2023-04-03T15:31:45;2.90;;;0.70;;
72369;SDS011;60343;-32.030;115.880;2023-04-03T15:34:25;4.15;;;0.50;;
72369;SDS011;60343;-32.030;115.880;2023-04-03T15:37:00;3.47;;;0.60;;
72369;SDS011;60343;-32.030;115.880;2023-04-03T15:39:35;3.70;;;0.60;;
72369;SDS011;60343;-32.030;115.880;2023-04-03T15:42:09;3.55;;;0.70;;
72369;SDS011;60343;-32.030;115.880;2023-04-03T15:44:43;2.55;;;0.50;;
72369;SDS011;60343;-32.030;115.880;2023-04-03T15:47:18;3.53;;;0.77;;
72369;SDS011;60343;-32.030;115.880;2023-04-03T15:49:59;1.67;;;0.60;;